CheckWX is a tool to help pilots better visualize weather data.  It is not intended as a substitute for an official pre-flight weather briefing.

05:49:36 UTC

CYXX METAR
Abbotsford Airport
Abbotsford, Canada
Current

50 mins ago

CYXX 200500Z CCA 01004KT 6SM BR SCT003 OVC012 00/00 A2986 RMK SF4SC4 SLP115
Observed
Feb-20 @ 05:00 UTC
Wind
  • 010° at 4 KTS
Visibility
9,656 meters
Flight Rules
MVFR
Conditions
Mist
Cloud Levels
  • Scattered at 300' AGL
  • Overcast at 1,200' AGL
Temperature
C / 32°F
Dewpoint
C / 32°F
Humidity
100%
Altimeter
29.86" Hg
Pressure
1011.5 hPa
Previous

2 hours ago

CYXX 200400Z 02005KT 4SM -DZ SCT003 OVC010 01/00 A2986 RMK ST3SC5 SLP116
Observed
Feb-20 @ 04:00 UTC
Wind
  • 020° at 5 KTS
Visibility
6,437 meters
Flight Rules
MVFR
Conditions
Light Drizzle
Cloud Levels
  • Scattered at 300' AGL
  • Overcast at 1,000' AGL
Temperature
C / 34°F
Dewpoint
C / 32°F
Humidity
93%
Altimeter
29.86" Hg
Pressure
1011.6 hPa
Previous

2 hours ago

CYXX 200337Z 01003KT 4SM -DZ SCT003 OVC010 00/00 A2987 RMK ST3SC5 SLP119
Observed
Feb-20 @ 03:37 UTC
Wind
  • 010° at 3 KTS
Visibility
6,437 meters
Flight Rules
MVFR
Conditions
Light Drizzle
Cloud Levels
  • Scattered at 300' AGL
  • Overcast at 1,000' AGL
Temperature
C / 32°F
Dewpoint
C / 32°F
Humidity
100%
Altimeter
29.87" Hg
Pressure
1011.9 hPa